Terminal Aerodrome Forecast
Issued by NWS Twin Cities, MN

Current Version | Previous Version | Text Only | Print | Product List | Glossary On
Versions: 1 2 3 4 5 6 7 8 9 10 11 12 13 14 15 16 17 18 19 20 21 22 23 24
000
FTUS43 KMPX 251800 AAA
TAFMSP
TAF AMD
KMSP 251846Z 2519/2624 18005KT P6SM OVC015
      TEMPO 2519/2523 P6SM SCT015 OVC040
     FM260400 04005KT 6SM BR OVC015
      TEMPO 2607/2610 5SM -SN
     FM261000 36007KT P6SM OVC015=

USA.gov is the U.S. government's official web portal to all federal, state and local government web resources and services.